Kezdőlap
METAR-TAF:

METAR-TAF

Repülőterek :

Kansas City, Missouri, Amerikai Egyesült Államok

földrajzi szélesség: 39-17-50N, földrajzi hosszúság: 094-43-50W, magasság: 312 m

Jelenlegi meteorológiai megfigyelések

A jelentés 8 perccel ezelõtt készült, 04:53 UTC
Dél-délkeleti szél 4 kt
Hőmérséklet -4°C
Páratartalom 68%
Légköri nyomás 1027 hPa
Látótávolság: 14.5 km
Derült ég

METAR: KMCI 100453Z 15004KT 9SM CLR M04/M09 A3033 RMK AO2 SLP282 T10441094

Idő: 23:01 (05:01 UTC)

Előrejelzés

A jelentés 5 órával és 35 perccel ezelõtt készült, 23:26 UTC
Az előrejelzés 10-én 00 óra UTC és 10-én 24 óra UTC között érvényes
Különbözõ irányokból fújó szél 2 kt
Látótávolság: 10 km
Kevés felhő 25000 lábon
10-én 1300 órától UTC szerint
Nyugat-délnyugati szél 4 kt
Látótávolság: 10 km
Derült ég

TAF: KMCI 092326Z 1000/1024 VRB02KT P6SM FEW250 FM101300 25004KT P6SM SKC

Meteorológiai megfigyelések és előrejelzések több, mint 4000 repülőtéren (METAR és TAF jelentéseket).

A térképen piros és sárga pontok jelzik az elérhető meteorológiai állomásokat.

Mozgassa az egeret a pont fölött, hogy megjelenjen az állomás neve.

Azután kattintson az időjárási megfigyelések és előrejelzések megtekintéséhez.

A térkép megváltoztatása: kattintson a fekete keresztel jelölt zöld gombra ráközelítéshez, a vonallal jelölt zöld gombra távolításhoz, vagy a zöld nyilakra a szomszédos térképek eléréséhez.


METAR-TAF: